createdAt,value
2016-08-19T00:00:08.470Z,76.55
2016-08-19T00:01:08.498Z,76.75
2016-08-19T00:02:08.473Z,77.07
2016-08-19T00:03:08.477Z,77.33
2016-08-19T00:04:08.495Z,77.33
2016-08-19T00:05:08.511Z,76.93
2016-08-19T00:06:08.509Z,77.42
2016-08-19T00:07:08.527Z,76.88
2016-08-19T00:08:08.546Z,76.98
2016-08-19T00:09:08.532Z,77.36
2016-08-19T00:10:08.551Z,76.75
2016-08-19T00:11:08.548Z,77.33
2016-08-19T00:12:08.570Z,76.75
2016-08-19T00:13:08.557Z,76.75
2016-08-19T00:14:08.590Z,76.75
2016-08-19T00:15:08.595Z,77.33
2016-08-19T00:16:08.607Z,77.17
2016-08-19T00:17:08.611Z,76.75
2016-08-19T00:18:08.609Z,77.23
2016-08-19T00:19:08.629Z,77.07
2016-08-19T00:20:08.628Z,76.84
2016-08-19T00:21:08.640Z,77.33
2016-08-19T00:22:08.652Z,76.75
2016-08-19T00:23:08.649Z,76.98
2016-08-19T00:24:08.663Z,76.75
2016-08-19T00:25:08.674Z,77.13
2016-08-19T00:26:08.689Z,77.13
2016-08-19T00:27:08.711Z,77.23
2016-08-19T00:28:08.697Z,76.84
2016-08-19T00:29:08.705Z,77.03
2016-08-19T00:30:08.713Z,77.13
2016-08-19T00:31:08.719Z,77.13
2016-08-19T00:32:08.740Z,77.13
2016-08-19T00:33:08.746Z,76.75
2016-08-19T00:34:08.768Z,77.03
2016-08-19T00:35:08.741Z,77.13
2016-08-19T00:36:08.764Z,77.13
2016-08-19T00:37:08.777Z,77.13
2016-08-19T00:38:08.794Z,77.13
2016-08-19T00:39:08.793Z,77.13
2016-08-19T00:40:08.797Z,77.23
2016-08-19T00:41:08.822Z,77.23
2016-08-19T00:42:08.819Z,77.03
2016-08-19T00:43:08.829Z,77.33
2016-08-19T00:44:08.844Z,77.33
2016-08-19T00:45:08.865Z,77.13
2016-08-19T00:46:08.855Z,77.23
2016-08-19T00:47:08.861Z,77.13
2016-08-19T00:48:08.866Z,77.23
2016-08-19T00:49:08.873Z,77.23
2016-08-19T00:50:08.904Z,77.23
2016-08-19T00:51:08.893Z,77.13
2016-08-19T00:52:08.922Z,77.33
2016-08-19T00:53:08.916Z,77.13
2016-08-19T00:54:08.920Z,77.33
2016-08-19T00:55:08.950Z,77.03
2016-08-19T00:56:08.940Z,77.03
2016-08-19T00:57:08.947Z,77.23
2016-08-19T00:58:08.959Z,76.65
2016-08-19T00:59:08.969Z,77.23
2016-08-19T01:00:08.964Z,77.23
2016-08-19T01:01:08.966Z,77.23
2016-08-19T01:02:09.004Z,77.23
2016-08-19T01:03:09.004Z,77.23
2016-08-19T01:04:09.014Z,77.33
2016-08-19T01:05:09.006Z,77.23
2016-08-19T01:06:09.015Z,77.33
2016-08-19T01:07:09.025Z,77.23
2016-08-19T01:08:09.031Z,77.13
2016-08-19T01:09:09.049Z,77.23
2016-08-19T01:10:09.045Z,77.13
2016-08-19T01:11:09.057Z,77.13
2016-08-19T01:12:09.071Z,77.03
2016-08-19T01:13:09.068Z,77.13
2016-08-19T01:14:09.082Z,77.03
2016-08-19T01:15:09.101Z,77.03
2016-08-19T01:16:09.112Z,77.03
2016-08-19T01:17:09.118Z,76.93
2016-08-19T01:18:09.138Z,77.33
2016-08-19T01:19:09.133Z,76.93
2016-08-19T01:20:09.130Z,77.03
2016-08-19T01:21:09.146Z,76.93
2016-08-19T01:22:09.214Z,77.23
2016-08-19T01:23:09.170Z,77.03
2016-08-19T01:24:09.185Z,76.65
2016-08-19T01:25:09.192Z,76.93
2016-08-19T01:26:09.181Z,76.55
2016-08-19T01:27:09.194Z,77.03
2016-08-19T01:28:09.198Z,76.75
2016-08-19T01:29:09.201Z,77.13
2016-08-19T01:30:09.226Z,77.23
2016-08-19T01:31:09.236Z,76.75
2016-08-19T01:32:09.229Z,77.23
2016-08-19T01:33:09.236Z,76.65
2016-08-19T01:34:09.260Z,76.75
2016-08-19T01:35:09.256Z,76.75
2016-08-19T01:36:09.282Z,76.75
2016-08-19T01:37:09.277Z,76.45
2016-08-19T01:38:09.287Z,76.75
2016-08-19T01:39:09.302Z,77.13
2016-08-19T01:40:09.321Z,77.23
2016-08-19T01:41:09.321Z,76.65
2016-08-19T01:42:09.326Z,77.03
2016-08-19T01:43:09.343Z,76.93
2016-08-19T01:44:09.361Z,76.75
2016-08-19T01:45:09.347Z,76.84
2016-08-19T01:46:09.367Z,76.65
2016-08-19T01:47:09.385Z,76.75
2016-08-19T01:48:09.391Z,76.84
2016-08-19T01:49:09.410Z,76.75
2016-08-19T01:50:09.404Z,77.03
2016-08-19T01:51:09.393Z,76.93
2016-08-19T01:52:09.417Z,76.75
2016-08-19T01:53:09.413Z,76.75
2016-08-19T01:54:09.437Z,76.93
2016-08-19T01:55:09.437Z,76.93
2016-08-19T01:56:09.447Z,76.75
2016-08-19T01:57:09.467Z,76.93
2016-08-19T01:58:09.447Z,76.84
2016-08-19T01:59:09.473Z,76.93
2016-08-19T02:00:09.465Z,76.84
2016-08-19T02:01:09.491Z,76.75
2016-08-19T02:02:09.484Z,76.84
2016-08-19T02:03:09.506Z,76.84
2016-08-19T02:04:09.501Z,76.84
2016-08-19T02:05:09.523Z,76.84
2016-08-19T02:06:09.544Z,76.84
2016-08-19T02:07:09.542Z,76.75
2016-08-19T02:08:09.560Z,76.84
2016-08-19T02:09:09.554Z,76.75
2016-08-19T02:10:10.248Z,76.75
2016-08-19T02:11:09.557Z,76.84
2016-08-19T02:12:09.579Z,76.75
2016-08-19T02:13:09.597Z,76.75
2016-08-19T02:14:09.591Z,76.84
2016-08-19T02:15:09.619Z,76.75
2016-08-19T02:16:09.612Z,76.75
2016-08-19T02:17:09.623Z,76.75
2016-08-19T02:18:09.639Z,76.75
2016-08-19T02:19:09.633Z,76.84
2016-08-19T02:20:09.640Z,76.75
2016-08-19T02:21:09.661Z,76.84
2016-08-19T02:22:09.658Z,76.75
2016-08-19T02:23:09.678Z,76.75
2016-08-19T02:24:09.687Z,76.75
2016-08-19T02:25:09.688Z,76.84
2016-08-19T02:26:09.705Z,76.75
2016-08-19T02:27:09.710Z,76.84
2016-08-19T02:28:09.715Z,76.84
2016-08-19T02:29:09.717Z,76.75
2016-08-19T02:30:10.434Z,76.75
2016-08-19T02:31:09.744Z,76.84
2016-08-19T02:32:09.729Z,76.75
2016-08-19T02:33:09.760Z,76.75
2016-08-19T02:34:09.765Z,76.75
2016-08-19T02:35:09.770Z,76.84
2016-08-19T02:36:09.777Z,77.13
2016-08-19T02:37:09.789Z,76.84
2016-08-19T02:38:09.799Z,76.75
2016-08-19T02:39:09.805Z,76.84
2016-08-19T02:40:09.818Z,76.84
2016-08-19T02:41:09.822Z,76.84
2016-08-19T02:42:09.837Z,76.65
2016-08-19T02:43:09.836Z,76.84
2016-08-19T02:44:09.849Z,76.84
2016-08-19T02:45:09.866Z,76.75
2016-08-19T02:46:09.878Z,76.93
2016-08-19T02:47:09.867Z,76.75
2016-08-19T02:48:09.885Z,76.75
2016-08-19T02:49:09.897Z,76.75
2016-08-19T02:50:09.903Z,76.75
2016-08-19T02:51:09.901Z,76.84
2016-08-19T02:52:09.906Z,76.75
2016-08-19T02:53:09.908Z,76.84
2016-08-19T02:54:09.941Z,76.75
2016-08-19T02:55:09.941Z,76.75
2016-08-19T02:56:09.938Z,76.75
2016-08-19T02:57:09.962Z,76.84
2016-08-19T02:58:09.974Z,76.93
2016-08-19T02:59:09.966Z,76.84
2016-08-19T03:00:09.987Z,76.93
2016-08-19T03:01:09.985Z,76.84
2016-08-19T03:02:09.996Z,76.93
2016-08-19T03:03:10.002Z,76.93
2016-08-19T03:04:10.023Z,76.84
2016-08-19T03:05:10.024Z,76.84
2016-08-19T03:06:10.036Z,76.84
2016-08-19T03:07:10.049Z,76.93
2016-08-19T03:08:10.054Z,76.75
2016-08-19T03:09:10.047Z,76.65
2016-08-19T03:10:10.063Z,76.75
2016-08-19T03:11:10.070Z,76.84
2016-08-19T03:12:10.091Z,76.84
2016-08-19T03:13:10.081Z,76.84
2016-08-19T03:14:10.091Z,76.93
2016-08-19T03:15:10.094Z,76.84
2016-08-19T03:16:10.128Z,76.75
2016-08-19T03:17:10.136Z,76.75
2016-08-19T03:18:10.140Z,77.13
2016-08-19T03:19:10.164Z,76.84
2016-08-19T03:20:10.164Z,76.84
2016-08-19T03:21:10.155Z,76.65
2016-08-19T03:22:10.173Z,76.84
2016-08-19T03:23:10.202Z,76.84
2016-08-19T03:24:10.189Z,76.75
2016-08-19T03:25:10.189Z,76.93
2016-08-19T03:26:10.199Z,76.84
2016-08-19T03:27:10.209Z,76.75
2016-08-19T03:28:10.224Z,76.75
2016-08-19T03:29:10.217Z,76.65
2016-08-19T03:30:10.225Z,76.65
2016-08-19T03:31:10.259Z,76.55
2016-08-19T03:32:10.236Z,76.84
2016-08-19T03:33:10.265Z,76.75
2016-08-19T03:34:10.269Z,76.65
2016-08-19T03:35:10.284Z,76.75
2016-08-19T03:36:10.270Z,76.55
2016-08-19T03:37:10.296Z,76.65
2016-08-19T03:38:10.300Z,76.93
2016-08-19T03:39:10.319Z,76.65
2016-08-19T03:40:10.330Z,76.65
2016-08-19T03:41:10.326Z,76.45
2016-08-19T03:42:10.348Z,76.55
2016-08-19T03:43:10.334Z,76.45
2016-08-19T03:44:10.361Z,76.93
2016-08-19T03:45:10.352Z,76.93
2016-08-19T03:46:10.362Z,76.55
2016-08-19T03:47:10.380Z,76.45
2016-08-19T03:48:10.494Z,76.45
2016-08-19T03:49:10.394Z,76.93
2016-08-19T03:50:10.401Z,76.84
2016-08-19T03:51:10.403Z,76.55
2016-08-19T03:52:10.406Z,76.93
2016-08-19T03:53:10.420Z,76.75
2016-08-19T03:54:10.433Z,76.93
2016-08-19T03:55:10.436Z,76.84
2016-08-19T03:56:10.453Z,76.55
2016-08-19T03:57:10.460Z,76.93
2016-08-19T03:58:10.470Z,76.75
2016-08-19T03:59:10.470Z,76.55
2016-08-19T04:00:10.486Z,76.84
2016-08-19T04:01:10.481Z,76.93
2016-08-19T04:02:10.496Z,76.45
2016-08-19T04:03:10.520Z,76.55
2016-08-19T04:04:10.512Z,76.75
2016-08-19T04:05:10.535Z,76.65
2016-08-19T04:06:10.544Z,76.26
2016-08-19T04:07:10.552Z,76.75
2016-08-19T04:08:10.547Z,76.75
2016-08-19T04:09:10.551Z,76.55
2016-08-19T04:10:10.564Z,76.75
2016-08-19T04:11:10.563Z,76.65
2016-08-19T04:12:10.593Z,76.26
2016-08-19T04:13:10.599Z,76.55
2016-08-19T04:14:10.611Z,76.26
2016-08-19T04:15:10.619Z,76.55
2016-08-19T04:16:10.623Z,76.36
2016-08-19T04:17:10.627Z,76.65
2016-08-19T04:18:10.645Z,76.36
2016-08-19T04:19:10.639Z,76.75
2016-08-19T04:20:10.649Z,76.26
2016-08-19T04:21:10.657Z,76.65
2016-08-19T04:22:10.682Z,76.65
2016-08-19T04:23:10.671Z,76.65
2016-08-19T04:24:10.693Z,76.36
2016-08-19T04:25:10.698Z,76.55
2016-08-19T04:26:10.708Z,76.45
2016-08-19T04:27:10.712Z,76.45
2016-08-19T04:28:10.715Z,76.45
2016-08-19T04:29:10.736Z,76.36
2016-08-19T04:30:10.755Z,76.36
2016-08-19T04:31:10.767Z,76.36
2016-08-19T04:32:10.740Z,76.36
2016-08-19T04:33:10.770Z,76.36
2016-08-19T04:34:10.772Z,76.45
2016-08-19T04:35:10.806Z,76.36
2016-08-19T04:36:10.782Z,76.36
2016-08-19T04:37:10.785Z,76.55
2016-08-19T04:38:10.807Z,76.36
2016-08-19T04:39:10.807Z,76.36
2016-08-19T04:40:10.809Z,76.45
2016-08-19T04:41:10.826Z,76.36
2016-08-19T04:42:10.832Z,76.55
2016-08-19T04:43:10.853Z,76.55
2016-08-19T04:44:10.862Z,76.36
2016-08-19T04:45:10.848Z,76.65
2016-08-19T04:46:10.875Z,76.36
2016-08-19T04:47:10.869Z,76.45
2016-08-19T04:48:10.993Z,76.17
2016-08-19T04:49:10.895Z,76.36
2016-08-19T04:50:11.608Z,76.65
2016-08-19T04:51:10.923Z,76.45
2016-08-19T04:52:10.916Z,76.55
2016-08-19T04:53:10.931Z,76.26
2016-08-19T04:54:10.922Z,76.45
2016-08-19T04:55:10.945Z,76.26
2016-08-19T04:56:10.965Z,76.26
2016-08-19T04:57:10.954Z,76.26
2016-08-19T04:58:10.974Z,76.26
2016-08-19T04:59:10.989Z,76.26
2016-08-19T05:00:10.991Z,76.36
2016-08-19T05:01:10.990Z,76.26
2016-08-19T05:02:11.714Z,76.45
2016-08-19T05:03:11.022Z,76.45
2016-08-19T05:04:11.022Z,76.17
2016-08-19T05:05:11.021Z,76.26
2016-08-19T05:06:11.054Z,76.26
2016-08-19T05:07:11.043Z,76.36
2016-08-19T05:08:11.059Z,76.45
2016-08-19T05:09:11.064Z,76.45
2016-08-19T05:10:11.088Z,76.17
2016-08-19T05:11:11.077Z,76.55
2016-08-19T05:12:11.085Z,76.45
2016-08-19T05:13:11.102Z,76.26
2016-08-19T05:14:11.114Z,76.36
2016-08-19T05:15:11.102Z,76.26
2016-08-19T05:16:11.133Z,76.26
2016-08-19T05:17:11.121Z,76.17
2016-08-19T05:18:11.149Z,76.36
2016-08-19T05:19:11.146Z,76.36
2016-08-19T05:20:11.142Z,76.36
2016-08-19T05:21:11.169Z,76.45
2016-08-19T05:22:11.178Z,76.26
2016-08-19T05:23:11.177Z,76.36
2016-08-19T05:24:11.176Z,76.36
2016-08-19T05:25:11.200Z,76.36
2016-08-19T05:26:11.217Z,76.55
2016-08-19T05:27:11.215Z,76.36
2016-08-19T05:28:11.218Z,76.36
2016-08-19T05:29:11.235Z,76.36
2016-08-19T05:30:11.254Z,76.36
2016-08-19T05:31:11.243Z,76.36
2016-08-19T05:32:11.252Z,76.65
2016-08-19T05:33:11.274Z,76.55
2016-08-19T05:34:11.285Z,76.45
2016-08-19T05:35:11.293Z,76.45
2016-08-19T05:36:11.298Z,76.55
2016-08-19T05:37:11.311Z,76.26
2016-08-19T05:38:11.317Z,76.55
2016-08-19T05:39:11.304Z,76.07
2016-08-19T05:40:11.321Z,75.88
2016-08-19T05:41:11.341Z,75.88
2016-08-19T05:42:11.345Z,76.07
2016-08-19T05:43:11.355Z,76.07
2016-08-19T05:44:11.352Z,75.97
2016-08-19T05:45:11.361Z,75.68
2016-08-19T05:46:11.362Z,76.07
2016-08-19T05:47:11.388Z,75.88
2016-08-19T05:48:11.481Z,76.07
2016-08-19T05:49:11.413Z,76.07
2016-08-19T05:50:11.416Z,75.97
2016-08-19T05:51:11.410Z,75.97
2016-08-19T05:52:11.433Z,76.07
2016-08-19T05:53:11.431Z,75.97
2016-08-19T05:54:11.450Z,75.97
2016-08-19T05:55:11.436Z,75.97
2016-08-19T05:56:11.445Z,75.88
2016-08-19T05:57:11.477Z,75.97
2016-08-19T05:58:11.484Z,75.97
2016-08-19T05:59:11.470Z,75.78
2016-08-19T06:00:11.481Z,76.07
2016-08-19T06:01:11.501Z,75.78
2016-08-19T06:02:11.535Z,75.97
2016-08-19T06:03:11.504Z,75.78
2016-08-19T06:04:11.561Z,75.88
2016-08-19T06:05:11.537Z,75.88
2016-08-19T06:06:11.538Z,75.97
2016-08-19T06:07:11.545Z,76.07
2016-08-19T06:08:11.568Z,75.88
2016-08-19T06:09:11.561Z,75.78
2016-08-19T06:10:11.586Z,75.97
2016-08-19T06:11:11.597Z,75.97
2016-08-19T06:12:11.615Z,76.07
2016-08-19T06:13:11.610Z,76.07
2016-08-19T06:14:11.613Z,75.88
2016-08-19T06:15:11.621Z,76.07
2016-08-19T06:16:11.632Z,76.17
2016-08-19T06:17:11.623Z,76.07
2016-08-19T06:18:11.633Z,76.17
2016-08-19T06:19:11.658Z,76.07
2016-08-19T06:20:11.667Z,76.07
2016-08-19T06:21:11.662Z,76.17
2016-08-19T06:22:11.673Z,75.97
2016-08-19T06:23:11.697Z,75.78
2016-08-19T06:24:11.705Z,75.68
2016-08-19T06:25:11.711Z,75.97
2016-08-19T06:26:11.712Z,76.07
2016-08-19T06:27:11.727Z,76.17
2016-08-19T06:28:11.726Z,75.97
2016-08-19T06:29:11.750Z,75.97
2016-08-19T06:30:11.733Z,76.07
2016-08-19T06:31:11.768Z,76.07
2016-08-19T06:32:11.775Z,75.68
2016-08-19T06:33:11.775Z,75.97
2016-08-19T06:34:11.786Z,76.17
2016-08-19T06:35:11.797Z,75.97
2016-08-19T06:36:11.786Z,76.17
2016-08-19T06:37:11.794Z,75.68
2016-08-19T06:38:11.817Z,76.07
2016-08-19T06:39:11.826Z,75.97
2016-08-19T06:40:11.841Z,76.17
2016-08-19T06:41:11.836Z,76.07
2016-08-19T06:42:11.834Z,75.97
2016-08-19T06:43:11.858Z,75.97
2016-08-19T06:44:11.874Z,75.68
2016-08-19T06:45:11.860Z,75.97
2016-08-19T06:46:11.895Z,75.97
2016-08-19T06:47:11.902Z,76.07
2016-08-19T06:48:11.886Z,76.17
2016-08-19T06:49:11.919Z,75.68
2016-08-19T06:50:11.903Z,75.78
2016-08-19T06:51:11.920Z,76.07
2016-08-19T06:52:11.921Z,75.78
2016-08-19T06:53:11.952Z,75.97
2016-08-19T06:54:11.962Z,75.97
2016-08-19T06:55:11.948Z,75.88
2016-08-19T06:56:11.971Z,75.88
2016-08-19T06:57:11.983Z,75.97
2016-08-19T06:58:11.984Z,75.97
2016-08-19T06:59:11.997Z,75.88
2016-08-19T07:00:12.011Z,76.17
2016-08-19T07:01:12.021Z,76.17
2016-08-19T07:02:12.004Z,76.17
2016-08-19T07:03:12.024Z,75.97
2016-08-19T07:04:12.045Z,76.17
2016-08-19T07:05:12.041Z,76.07
2016-08-19T07:06:12.058Z,75.88
2016-08-19T07:07:12.050Z,76.07
2016-08-19T07:08:12.083Z,75.68
2016-08-19T07:09:12.077Z,76.07
2016-08-19T07:10:12.082Z,75.88
2016-08-19T07:11:12.102Z,75.97
2016-08-19T07:12:12.097Z,75.97
2016-08-19T07:13:12.108Z,76.26
2016-08-19T07:14:12.121Z,75.88
2016-08-19T07:15:12.137Z,76.17
2016-08-19T07:16:12.145Z,76.26
2016-08-19T07:17:12.141Z,76.07
2016-08-19T07:18:12.166Z,76.55
2016-08-19T07:19:12.165Z,76.17
2016-08-19T07:20:12.172Z,76.45
2016-08-19T07:21:12.179Z,76.45
2016-08-19T07:22:12.194Z,76.45
2016-08-19T07:23:12.201Z,76.45
2016-08-19T07:24:12.213Z,76.55
2016-08-19T07:25:12.207Z,77.03
2016-08-19T07:26:12.228Z,76.84
2016-08-19T07:27:12.241Z,76.84
2016-08-19T07:28:12.238Z,77.13
2016-08-19T07:29:12.250Z,77.23
2016-08-19T07:30:12.247Z,76.75
2016-08-19T07:31:12.269Z,77.03
2016-08-19T07:32:12.274Z,77.33
2016-08-19T07:33:12.290Z,77.03
2016-08-19T07:34:12.280Z,77.03
2016-08-19T07:35:12.297Z,77.33
2016-08-19T07:36:12.300Z,77.03
2016-08-19T07:37:12.302Z,77.51
2016-08-19T07:38:12.329Z,77.42
2016-08-19T07:39:12.321Z,77.71
2016-08-19T07:40:12.333Z,77.65
2016-08-19T07:41:12.355Z,77.42
2016-08-19T07:42:12.353Z,77.65
2016-08-19T07:43:12.379Z,77.65
2016-08-19T07:44:12.367Z,77.75
2016-08-19T07:45:12.375Z,77.75
2016-08-19T07:46:12.393Z,77.46
2016-08-19T07:47:12.403Z,77.46
2016-08-19T07:48:12.411Z,77.46
2016-08-19T07:49:12.432Z,77.55
2016-08-19T07:50:12.431Z,77.46
2016-08-19T07:51:12.450Z,77.55
2016-08-19T07:52:12.440Z,77.51
2016-08-19T07:53:12.464Z,77.75
2016-08-19T07:54:12.474Z,77.46
2016-08-19T07:55:12.464Z,77.75
2016-08-19T07:56:12.484Z,77.42
2016-08-19T07:57:12.493Z,77.65
2016-08-19T07:58:12.511Z,77.46
2016-08-19T07:59:12.502Z,77.36
2016-08-19T08:00:12.519Z,77.46
2016-08-19T08:01:12.529Z,77.36
2016-08-19T08:02:12.524Z,77.65
2016-08-19T08:03:12.546Z,77.36
2016-08-19T08:04:12.549Z,77.84
2016-08-19T08:05:12.548Z,77.94
2016-08-19T08:06:12.554Z,77.65
2016-08-19T08:07:12.580Z,77.9
2016-08-19T08:08:12.576Z,77.75
2016-08-19T08:09:12.606Z,77.75
2016-08-19T08:10:12.604Z,78.03
2016-08-19T08:11:12.596Z,78.23
2016-08-19T08:12:12.623Z,77.94
2016-08-19T08:13:12.631Z,77.75
2016-08-19T08:14:12.635Z,77.84
2016-08-19T08:15:12.656Z,77.94
2016-08-19T08:16:12.666Z,77.75
2016-08-19T08:17:12.667Z,77.75
2016-08-19T08:18:12.672Z,77.75
2016-08-19T08:19:12.678Z,77.55
2016-08-19T08:20:12.685Z,77.46
2016-08-19T08:21:12.703Z,77.36
2016-08-19T08:22:12.704Z,77.55
2016-08-19T08:23:12.712Z,77.55
2016-08-19T08:24:12.723Z,77.46
2016-08-19T08:25:12.742Z,77.65
2016-08-19T08:26:12.753Z,77.65
2016-08-19T08:27:12.753Z,77.75
2016-08-19T08:28:12.757Z,77.84
2016-08-19T08:29:12.778Z,77.65
2016-08-19T08:30:12.764Z,77.59
